sensor_id;sensor_type;location;lat;lon;timestamp;P1;durP1;ratioP1;P2;durP2;ratioP2
63492;SDS011;49638;47.526;10.028;2023-05-07T00:01:19;4.53;;;2.90;;
63492;SDS011;49638;47.526;10.028;2023-05-07T00:04:20;3.30;;;2.78;;
63492;SDS011;49638;47.526;10.028;2023-05-07T00:07:20;3.25;;;2.50;;
63492;SDS011;49638;47.526;10.028;2023-05-07T00:10:20;3.08;;;2.53;;
63492;SDS011;49638;47.526;10.028;2023-05-07T00:13:21;2.90;;;2.40;;
63492;SDS011;49638;47.526;10.028;2023-05-07T00:16:21;4.88;;;2.80;;
63492;SDS011;49638;47.526;10.028;2023-05-07T00:19:21;3.20;;;2.63;;
63492;SDS011;49638;47.526;10.028;2023-05-07T00:22:22;3.78;;;2.95;;
63492;SDS011;49638;47.526;10.028;2023-05-07T00:25:22;3.47;;;2.53;;
63492;SDS011;49638;47.526;10.028;2023-05-07T00:28:22;3.17;;;2.67;;
63492;SDS011;49638;47.526;10.028;2023-05-07T00:31:22;4.10;;;2.97;;
63492;SDS011;49638;47.526;10.028;2023-05-07T00:34:23;3.05;;;2.63;;
63492;SDS011;49638;47.526;10.028;2023-05-07T00:37:23;2.97;;;2.67;;
63492;SDS011;49638;47.526;10.028;2023-05-07T00:40:23;3.90;;;2.88;;
63492;SDS011;49638;47.526;10.028;2023-05-07T00:43:24;2.90;;;2.60;;
63492;SDS011;49638;47.526;10.028;2023-05-07T00:46:24;4.10;;;2.60;;
63492;SDS011;49638;47.526;10.028;2023-05-07T00:49:32;4.22;;;2.70;;
63492;SDS011;49638;47.526;10.028;2023-05-07T00:52:38;5.55;;;2.90;;
63492;SDS011;49638;47.526;10.028;2023-05-07T00:55:38;5.07;;;3.00;;
63492;SDS011;49638;47.526;10.028;2023-05-07T00:58:40;3.65;;;2.60;;
63492;SDS011;49638;47.526;10.028;2023-05-07T01:01:40;3.63;;;2.80;;
63492;SDS011;49638;47.526;10.028;2023-05-07T01:04:41;5.75;;;2.38;;
63492;SDS011;49638;47.526;10.028;2023-05-07T01:07:41;4.10;;;2.83;;
63492;SDS011;49638;47.526;10.028;2023-05-07T01:10:42;3.92;;;2.80;;
63492;SDS011;49638;47.526;10.028;2023-05-07T01:13:43;6.20;;;3.10;;
63492;SDS011;49638;47.526;10.028;2023-05-07T01:16:44;4.30;;;2.90;;
63492;SDS011;49638;47.526;10.028;2023-05-07T01:19:44;5.10;;;2.72;;
63492;SDS011;49638;47.526;10.028;2023-05-07T01:22:45;4.55;;;2.75;;
63492;SDS011;49638;47.526;10.028;2023-05-07T01:25:55;4.05;;;2.95;;
63492;SDS011;49638;47.526;10.028;2023-05-07T01:28:55;2.92;;;2.63;;
63492;SDS011;49638;47.526;10.028;2023-05-07T01:31:59;4.72;;;2.83;;
63492;SDS011;49638;47.526;10.028;2023-05-07T01:35:01;5.53;;;2.47;;
63492;SDS011;49638;47.526;10.028;2023-05-07T01:38:02;3.05;;;2.63;;
63492;SDS011;49638;47.526;10.028;2023-05-07T01:41:04;3.53;;;3.10;;
63492;SDS011;49638;47.526;10.028;2023-05-07T01:44:04;4.32;;;2.90;;
63492;SDS011;49638;47.526;10.028;2023-05-07T01:47:06;3.50;;;3.20;;
63492;SDS011;49638;47.526;10.028;2023-05-07T01:50:06;7.60;;;2.92;;
63492;SDS011;49638;47.526;10.028;2023-05-07T01:53:11;4.97;;;3.20;;
63492;SDS011;49638;47.526;10.028;2023-05-07T01:56:11;3.33;;;3.03;;
63492;SDS011;49638;47.526;10.028;2023-05-07T01:59:11;3.45;;;3.00;;
63492;SDS011;49638;47.526;10.028;2023-05-07T02:02:13;4.80;;;2.78;;
63492;SDS011;49638;47.526;10.028;2023-05-07T02:05:13;5.38;;;3.20;;
63492;SDS011;49638;47.526;10.028;2023-05-07T02:08:13;3.83;;;2.90;;
63492;SDS011;49638;47.526;10.028;2023-05-07T02:11:14;3.20;;;2.90;;
63492;SDS011;49638;47.526;10.028;2023-05-07T02:14:14;3.58;;;3.10;;
63492;SDS011;49638;47.526;10.028;2023-05-07T02:17:15;3.42;;;2.60;;
63492;SDS011;49638;47.526;10.028;2023-05-07T02:20:15;4.38;;;2.80;;
63492;SDS011;49638;47.526;10.028;2023-05-07T02:23:16;2.75;;;2.53;;
63492;SDS011;49638;47.526;10.028;2023-05-07T02:26:16;2.85;;;2.63;;
63492;SDS011;49638;47.526;10.028;2023-05-07T02:29:16;4.50;;;2.38;;
63492;SDS011;49638;47.526;10.028;2023-05-07T02:32:17;2.75;;;2.45;;
63492;SDS011;49638;47.526;10.028;2023-05-07T02:35:17;3.38;;;2.90;;
63492;SDS011;49638;47.526;10.028;2023-05-07T02:38:17;3.63;;;2.60;;
63492;SDS011;49638;47.526;10.028;2023-05-07T02:41:18;3.70;;;2.72;;
63492;SDS011;49638;47.526;10.028;2023-05-07T02:44:18;2.92;;;2.58;;
63492;SDS011;49638;47.526;10.028;2023-05-07T02:47:18;2.65;;;2.40;;
63492;SDS011;49638;47.526;10.028;2023-05-07T02:50:18;3.05;;;2.60;;
63492;SDS011;49638;47.526;10.028;2023-05-07T02:53:19;4.18;;;2.90;;
63492;SDS011;49638;47.526;10.028;2023-05-07T02:56:19;4.35;;;3.10;;
63492;SDS011;49638;47.526;10.028;2023-05-07T02:59:21;2.88;;;2.60;;
63492;SDS011;49638;47.526;10.028;2023-05-07T03:02:21;3.25;;;2.60;;
63492;SDS011;49638;47.526;10.028;2023-05-07T03:05:21;3.17;;;2.88;;
63492;SDS011;49638;47.526;10.028;2023-05-07T03:08:22;2.92;;;2.63;;
63492;SDS011;49638;47.526;10.028;2023-05-07T03:11:22;2.38;;;2.17;;
63492;SDS011;49638;47.526;10.028;2023-05-07T03:14:22;3.88;;;2.70;;
63492;SDS011;49638;47.526;10.028;2023-05-07T03:17:22;3.00;;;2.60;;
63492;SDS011;49638;47.526;10.028;2023-05-07T03:20:23;2.53;;;2.33;;
63492;SDS011;49638;47.526;10.028;2023-05-07T03:23:23;4.30;;;2.78;;
63492;SDS011;49638;47.526;10.028;2023-05-07T03:26:23;4.95;;;2.85;;
63492;SDS011;49638;47.526;10.028;2023-05-07T03:29:23;4.38;;;3.30;;
63492;SDS011;49638;47.526;10.028;2023-05-07T03:32:24;5.45;;;2.88;;
63492;SDS011;49638;47.526;10.028;2023-05-07T03:35:24;3.00;;;2.70;;
63492;SDS011;49638;47.526;10.028;2023-05-07T03:38:25;3.40;;;3.10;;
63492;SDS011;49638;47.526;10.028;2023-05-07T03:41:25;8.00;;;2.83;;
63492;SDS011;49638;47.526;10.028;2023-05-07T03:44:25;4.60;;;3.17;;
63492;SDS011;49638;47.526;10.028;2023-05-07T03:47:26;4.20;;;2.90;;
63492;SDS011;49638;47.526;10.028;2023-05-07T03:50:26;2.83;;;2.58;;
63492;SDS011;49638;47.526;10.028;2023-05-07T03:53:26;2.90;;;2.60;;
63492;SDS011;49638;47.526;10.028;2023-05-07T03:56:27;3.15;;;2.70;;
63492;SDS011;49638;47.526;10.028;2023-05-07T03:59:27;4.35;;;2.50;;
63492;SDS011;49638;47.526;10.028;2023-05-07T04:02:28;4.25;;;2.70;;
63492;SDS011;49638;47.526;10.028;2023-05-07T04:05:28;3.58;;;2.92;;
63492;SDS011;49638;47.526;10.028;2023-05-07T04:08:28;3.22;;;2.75;;
63492;SDS011;49638;47.526;10.028;2023-05-07T04:11:28;4.38;;;2.90;;
63492;SDS011;49638;47.526;10.028;2023-05-07T04:14:29;4.10;;;2.60;;
63492;SDS011;49638;47.526;10.028;2023-05-07T04:17:32;3.97;;;2.97;;
63492;SDS011;49638;47.526;10.028;2023-05-07T04:20:33;3.80;;;3.00;;
63492;SDS011;49638;47.526;10.028;2023-05-07T04:23:36;4.22;;;2.78;;
63492;SDS011;49638;47.526;10.028;2023-05-07T04:26:36;3.13;;;2.83;;
63492;SDS011;49638;47.526;10.028;2023-05-07T04:29:36;5.57;;;3.25;;
63492;SDS011;49638;47.526;10.028;2023-05-07T04:32:37;4.45;;;3.28;;
63492;SDS011;49638;47.526;10.028;2023-05-07T04:35:37;3.35;;;2.65;;
63492;SDS011;49638;47.526;10.028;2023-05-07T04:38:37;3.35;;;2.65;;
63492;SDS011;49638;47.526;10.028;2023-05-07T04:41:38;3.92;;;2.50;;
63492;SDS011;49638;47.526;10.028;2023-05-07T04:44:38;3.15;;;2.42;;
63492;SDS011;49638;47.526;10.028;2023-05-07T04:47:39;3.53;;;2.40;;
63492;SDS011;49638;47.526;10.028;2023-05-07T04:50:39;4.97;;;4.20;;
63492;SDS011;49638;47.526;10.028;2023-05-07T04:53:39;10.52;;;8.50;;
63492;SDS011;49638;47.526;10.028;2023-05-07T04:56:40;9.63;;;7.47;;
63492;SDS011;49638;47.526;10.028;2023-05-07T04:59:41;5.35;;;3.80;;
63492;SDS011;49638;47.526;10.028;2023-05-07T05:02:41;5.60;;;3.63;;
63492;SDS011;49638;47.526;10.028;2023-05-07T05:05:41;3.88;;;2.72;;
63492;SDS011;49638;47.526;10.028;2023-05-07T05:08:42;3.72;;;2.28;;
63492;SDS011;49638;47.526;10.028;2023-05-07T05:11:42;2.67;;;2.45;;
63492;SDS011;49638;47.526;10.028;2023-05-07T05:14:43;5.15;;;2.53;;
63492;SDS011;49638;47.526;10.028;2023-05-07T05:17:43;3.20;;;2.35;;
63492;SDS011;49638;47.526;10.028;2023-05-07T05:20:43;2.78;;;2.20;;
63492;SDS011;49638;47.526;10.028;2023-05-07T05:23:44;3.70;;;2.70;;
63492;SDS011;49638;47.526;10.028;2023-05-07T05:26:44;4.40;;;2.30;;
63492;SDS011;49638;47.526;10.028;2023-05-07T05:29:45;3.05;;;2.00;;
63492;SDS011;49638;47.526;10.028;2023-05-07T05:32:45;2.17;;;1.85;;
63492;SDS011;49638;47.526;10.028;2023-05-07T05:35:45;2.30;;;1.60;;
63492;SDS011;49638;47.526;10.028;2023-05-07T05:38:45;2.55;;;1.67;;
63492;SDS011;49638;47.526;10.028;2023-05-07T05:41:46;3.22;;;2.10;;
63492;SDS011;49638;47.526;10.028;2023-05-07T05:44:46;2.33;;;2.05;;
63492;SDS011;49638;47.526;10.028;2023-05-07T05:47:46;2.65;;;2.30;;
63492;SDS011;49638;47.526;10.028;2023-05-07T05:50:46;2.97;;;2.40;;
63492;SDS011;49638;47.526;10.028;2023-05-07T05:53:47;3.10;;;1.80;;
63492;SDS011;49638;47.526;10.028;2023-05-07T05:56:47;3.17;;;1.80;;
63492;SDS011;49638;47.526;10.028;2023-05-07T05:59:47;1.73;;;1.60;;
63492;SDS011;49638;47.526;10.028;2023-05-07T06:02:48;2.00;;;1.63;;
63492;SDS011;49638;47.526;10.028;2023-05-07T06:05:48;3.45;;;2.00;;
63492;SDS011;49638;47.526;10.028;2023-05-07T06:08:48;2.28;;;2.00;;
63492;SDS011;49638;47.526;10.028;2023-05-07T06:11:49;3.25;;;1.90;;
63492;SDS011;49638;47.526;10.028;2023-05-07T06:14:49;3.80;;;2.20;;
63492;SDS011;49638;47.526;10.028;2023-05-07T06:17:49;7.93;;;2.20;;
63492;SDS011;49638;47.526;10.028;2023-05-07T06:20:51;2.50;;;1.90;;
63492;SDS011;49638;47.526;10.028;2023-05-07T06:23:51;3.83;;;1.98;;
63492;SDS011;49638;47.526;10.028;2023-05-07T06:26:52;1.80;;;1.65;;
63492;SDS011;49638;47.526;10.028;2023-05-07T06:29:52;1.73;;;1.60;;
63492;SDS011;49638;47.526;10.028;2023-05-07T06:32:53;1.92;;;1.63;;
63492;SDS011;49638;47.526;10.028;2023-05-07T06:35:53;3.15;;;1.75;;
63492;SDS011;49638;47.526;10.028;2023-05-07T06:38:53;3.13;;;1.70;;
63492;SDS011;49638;47.526;10.028;2023-05-07T06:41:53;4.15;;;1.50;;
63492;SDS011;49638;47.526;10.028;2023-05-07T06:44:54;1.60;;;1.50;;
63492;SDS011;49638;47.526;10.028;2023-05-07T06:47:54;1.67;;;1.58;;
63492;SDS011;49638;47.526;10.028;2023-05-07T06:50:55;1.38;;;1.27;;
63492;SDS011;49638;47.526;10.028;2023-05-07T06:53:57;3.20;;;2.10;;
63492;SDS011;49638;47.526;10.028;2023-05-07T06:56:57;2.85;;;1.85;;
63492;SDS011;49638;47.526;10.028;2023-05-07T06:59:57;1.88;;;1.50;;
63492;SDS011;49638;47.526;10.028;2023-05-07T07:02:58;2.75;;;1.73;;
63492;SDS011;49638;47.526;10.028;2023-05-07T07:05:59;2.97;;;1.77;;
63492;SDS011;49638;47.526;10.028;2023-05-07T07:09:01;3.67;;;2.10;;
63492;SDS011;49638;47.526;10.028;2023-05-07T07:12:01;3.60;;;1.70;;
63492;SDS011;49638;47.526;10.028;2023-05-07T07:15:01;2.10;;;1.80;;
63492;SDS011;49638;47.526;10.028;2023-05-07T07:18:02;3.70;;;2.05;;
63492;SDS011;49638;47.526;10.028;2023-05-07T07:21:02;4.18;;;2.10;;
63492;SDS011;49638;47.526;10.028;2023-05-07T07:24:03;2.83;;;2.20;;
63492;SDS011;49638;47.526;10.028;2023-05-07T07:27:03;3.20;;;2.25;;
63492;SDS011;49638;47.526;10.028;2023-05-07T07:30:04;2.58;;;2.00;;
63492;SDS011;49638;47.526;10.028;2023-05-07T07:33:05;2.05;;;1.85;;
63492;SDS011;49638;47.526;10.028;2023-05-07T07:36:05;3.53;;;2.22;;
63492;SDS011;49638;47.526;10.028;2023-05-07T07:39:07;2.55;;;2.05;;
63492;SDS011;49638;47.526;10.028;2023-05-07T07:42:07;2.40;;;1.90;;
63492;SDS011;49638;47.526;10.028;2023-05-07T07:45:07;2.58;;;1.90;;
63492;SDS011;49638;47.526;10.028;2023-05-07T07:48:08;3.03;;;1.90;;
63492;SDS011;49638;47.526;10.028;2023-05-07T07:51:08;2.97;;;1.90;;
63492;SDS011;49638;47.526;10.028;2023-05-07T07:54:08;2.65;;;1.98;;
63492;SDS011;49638;47.526;10.028;2023-05-07T07:57:09;2.08;;;1.95;;
63492;SDS011;49638;47.526;10.028;2023-05-07T08:00:09;3.20;;;2.05;;
63492;SDS011;49638;47.526;10.028;2023-05-07T08:03:10;3.25;;;2.00;;
63492;SDS011;49638;47.526;10.028;2023-05-07T08:06:10;3.15;;;2.00;;
63492;SDS011;49638;47.526;10.028;2023-05-07T08:09:10;2.25;;;1.98;;
63492;SDS011;49638;47.526;10.028;2023-05-07T08:12:11;4.13;;;2.20;;
63492;SDS011;49638;47.526;10.028;2023-05-07T08:15:11;3.85;;;2.20;;
63492;SDS011;49638;47.526;10.028;2023-05-07T08:18:11;2.53;;;2.33;;
63492;SDS011;49638;47.526;10.028;2023-05-07T08:21:12;4.07;;;2.40;;
63492;SDS011;49638;47.526;10.028;2023-05-07T08:24:12;3.55;;;2.42;;
63492;SDS011;49638;47.526;10.028;2023-05-07T08:27:12;3.10;;;2.50;;
63492;SDS011;49638;47.526;10.028;2023-05-07T08:30:13;2.53;;;2.33;;
63492;SDS011;49638;47.526;10.028;2023-05-07T08:33:14;2.17;;;2.00;;
63492;SDS011;49638;47.526;10.028;2023-05-07T08:36:14;4.43;;;2.13;;
63492;SDS011;49638;47.526;10.028;2023-05-07T08:39:17;3.83;;;2.20;;
63492;SDS011;49638;47.526;10.028;2023-05-07T08:42:17;3.70;;;2.35;;
63492;SDS011;49638;47.526;10.028;2023-05-07T08:45:19;2.40;;;2.20;;
63492;SDS011;49638;47.526;10.028;2023-05-07T08:48:21;2.33;;;2.00;;
63492;SDS011;49638;47.526;10.028;2023-05-07T08:51:25;2.58;;;2.20;;
63492;SDS011;49638;47.526;10.028;2023-05-07T08:54:25;2.30;;;2.10;;
63492;SDS011;49638;47.526;10.028;2023-05-07T08:57:27;3.67;;;2.00;;
63492;SDS011;49638;47.526;10.028;2023-05-07T09:00:27;4.10;;;2.30;;
63492;SDS011;49638;47.526;10.028;2023-05-07T09:03:28;2.05;;;1.90;;
63492;SDS011;49638;47.526;10.028;2023-05-07T09:06:28;2.85;;;2.10;;
63492;SDS011;49638;47.526;10.028;2023-05-07T09:09:28;2.25;;;2.05;;
63492;SDS011;49638;47.526;10.028;2023-05-07T09:12:28;4.45;;;2.15;;
63492;SDS011;49638;47.526;10.028;2023-05-07T09:15:29;3.13;;;2.10;;
63492;SDS011;49638;47.526;10.028;2023-05-07T09:18:29;2.28;;;2.08;;
63492;SDS011;49638;47.526;10.028;2023-05-07T09:21:29;2.63;;;2.08;;
63492;SDS011;49638;47.526;10.028;2023-05-07T09:24:30;2.40;;;1.80;;
63492;SDS011;49638;47.526;10.028;2023-05-07T09:27:34;2.28;;;2.03;;
63492;SDS011;49638;47.526;10.028;2023-05-07T09:30:35;2.30;;;2.00;;
63492;SDS011;49638;47.526;10.028;2023-05-07T09:33:36;2.53;;;2.20;;
63492;SDS011;49638;47.526;10.028;2023-05-07T09:36:36;4.25;;;2.38;;
63492;SDS011;49638;47.526;10.028;2023-05-07T09:39:47;4.32;;;2.50;;
63492;SDS011;49638;47.526;10.028;2023-05-07T09:42:49;3.88;;;2.10;;
63492;SDS011;49638;47.526;10.028;2023-05-07T09:45:50;1.92;;;1.80;;
63492;SDS011;49638;47.526;10.028;2023-05-07T09:48:51;2.63;;;1.83;;
63492;SDS011;49638;47.526;10.028;2023-05-07T09:51:53;2.85;;;2.00;;
63492;SDS011;49638;47.526;10.028;2023-05-07T09:54:55;2.78;;;1.92;;
63492;SDS011;49638;47.526;10.028;2023-05-07T10:00:59;2.33;;;1.35;;
63492;SDS011;49638;47.526;10.028;2023-05-07T10:04:02;1.60;;;1.50;;
63492;SDS011;49638;47.526;10.028;2023-05-07T10:07:04;2.17;;;1.40;;
63492;SDS011;49638;47.526;10.028;2023-05-07T10:10:05;1.48;;;1.30;;
63492;SDS011;49638;47.526;10.028;2023-05-07T10:13:06;1.40;;;1.30;;
63492;SDS011;49638;47.526;10.028;2023-05-07T10:16:10;1.30;;;1.20;;
63492;SDS011;49638;47.526;10.028;2023-05-07T10:19:10;1.08;;;1.08;;
63492;SDS011;49638;47.526;10.028;2023-05-07T10:22:11;1.30;;;1.20;;
63492;SDS011;49638;47.526;10.028;2023-05-07T10:28:23;1.45;;;1.20;;
63492;SDS011;49638;47.526;10.028;2023-05-07T10:34:40;2.15;;;1.40;;
63492;SDS011;49638;47.526;10.028;2023-05-07T10:37:46;4.65;;;1.45;;
63492;SDS011;49638;47.526;10.028;2023-05-07T10:40:46;2.72;;;1.60;;
63492;SDS011;49638;47.526;10.028;2023-05-07T10:43:47;2.33;;;1.42;;
63492;SDS011;49638;47.526;10.028;2023-05-07T10:47:02;2.97;;;1.58;;
63492;SDS011;49638;47.526;10.028;2023-05-07T10:53:19;2.13;;;1.50;;
63492;SDS011;49638;47.526;10.028;2023-05-07T10:56:24;2.55;;;1.30;;
63492;SDS011;49638;47.526;10.028;2023-05-07T10:59:30;3.20;;;1.40;;
63492;SDS011;49638;47.526;10.028;2023-05-07T11:06:12;3.17;;;1.70;;
63492;SDS011;49638;47.526;10.028;2023-05-07T11:09:14;3.15;;;1.50;;
63492;SDS011;49638;47.526;10.028;2023-05-07T11:12:14;1.98;;;1.50;;
63492;SDS011;49638;47.526;10.028;2023-05-07T11:15:14;3.35;;;1.63;;
63492;SDS011;49638;47.526;10.028;2023-05-07T11:18:47;3.75;;;1.50;;
63492;SDS011;49638;47.526;10.028;2023-05-07T11:21:49;1.92;;;1.65;;
63492;SDS011;49638;47.526;10.028;2023-05-07T11:24:50;2.08;;;1.70;;
63492;SDS011;49638;47.526;10.028;2023-05-07T11:27:50;2.47;;;1.90;;
63492;SDS011;49638;47.526;10.028;2023-05-07T11:30:51;2.08;;;1.83;;
63492;SDS011;49638;47.526;10.028;2023-05-07T11:33:52;2.08;;;1.95;;
63492;SDS011;49638;47.526;10.028;2023-05-07T11:36:54;3.55;;;1.90;;
63492;SDS011;49638;47.526;10.028;2023-05-07T11:40:08;2.47;;;1.60;;
63492;SDS011;49638;47.526;10.028;2023-05-07T11:43:10;2.45;;;1.95;;
63492;SDS011;49638;47.526;10.028;2023-05-07T11:46:11;1.77;;;1.67;;
63492;SDS011;49638;47.526;10.028;2023-05-07T11:49:14;3.20;;;1.70;;
63492;SDS011;49638;47.526;10.028;2023-05-07T11:52:15;1.80;;;1.70;;
63492;SDS011;49638;47.526;10.028;2023-05-07T11:55:17;2.17;;;1.48;;
63492;SDS011;49638;47.526;10.028;2023-05-07T11:58:24;2.88;;;1.42;;
63492;SDS011;49638;47.526;10.028;2023-05-07T12:01:27;1.85;;;1.75;;
63492;SDS011;49638;47.526;10.028;2023-05-07T12:04:29;1.50;;;1.40;;
63492;SDS011;49638;47.526;10.028;2023-05-07T12:07:30;1.73;;;1.60;;
63492;SDS011;49638;47.526;10.028;2023-05-07T12:10:31;3.83;;;1.70;;
63492;SDS011;49638;47.526;10.028;2023-05-07T12:13:32;3.90;;;1.77;;
63492;SDS011;49638;47.526;10.028;2023-05-07T12:16:32;2.90;;;1.80;;
63492;SDS011;49638;47.526;10.028;2023-05-07T12:19:33;2.20;;;1.70;;
63492;SDS011;49638;47.526;10.028;2023-05-07T12:22:35;1.70;;;1.60;;
63492;SDS011;49638;47.526;10.028;2023-05-07T12:25:36;2.03;;;1.73;;
63492;SDS011;49638;47.526;10.028;2023-05-07T12:28:38;1.83;;;1.60;;
63492;SDS011;49638;47.526;10.028;2023-05-07T12:31:42;1.88;;;1.77;;
63492;SDS011;49638;47.526;10.028;2023-05-07T12:34:43;1.90;;;1.80;;
63492;SDS011;49638;47.526;10.028;2023-05-07T12:37:44;2.95;;;1.70;;
63492;SDS011;49638;47.526;10.028;2023-05-07T12:40:45;4.03;;;2.08;;
63492;SDS011;49638;47.526;10.028;2023-05-07T12:43:51;3.08;;;2.13;;
63492;SDS011;49638;47.526;10.028;2023-05-07T12:46:57;1.83;;;1.73;;
63492;SDS011;49638;47.526;10.028;2023-05-07T12:50:01;3.30;;;1.88;;
63492;SDS011;49638;47.526;10.028;2023-05-07T12:53:03;1.80;;;1.65;;
63492;SDS011;49638;47.526;10.028;2023-05-07T12:56:06;1.85;;;1.73;;
63492;SDS011;49638;47.526;10.028;2023-05-07T12:59:06;3.70;;;1.80;;
63492;SDS011;49638;47.526;10.028;2023-05-07T13:02:07;2.00;;;1.90;;
63492;SDS011;49638;47.526;10.028;2023-05-07T13:05:08;3.47;;;2.05;;
63492;SDS011;49638;47.526;10.028;2023-05-07T13:08:08;3.40;;;1.98;;
63492;SDS011;49638;47.526;10.028;2023-05-07T13:11:10;2.30;;;2.10;;
63492;SDS011;49638;47.526;10.028;2023-05-07T13:14:11;2.22;;;1.98;;
63492;SDS011;49638;47.526;10.028;2023-05-07T13:17:12;2.50;;;1.80;;
63492;SDS011;49638;47.526;10.028;2023-05-07T13:20:12;2.22;;;1.80;;
63492;SDS011;49638;47.526;10.028;2023-05-07T13:23:12;2.45;;;2.00;;
63492;SDS011;49638;47.526;10.028;2023-05-07T13:26:13;2.57;;;2.07;;
63492;SDS011;49638;47.526;10.028;2023-05-07T13:29:13;2.10;;;1.90;;
63492;SDS011;49638;47.526;10.028;2023-05-07T13:32:13;2.67;;;1.93;;
63492;SDS011;49638;47.526;10.028;2023-05-07T13:35:13;3.10;;;2.28;;
63492;SDS011;49638;47.526;10.028;2023-05-07T13:38:14;2.22;;;2.00;;
63492;SDS011;49638;47.526;10.028;2023-05-07T13:41:15;2.15;;;1.90;;
63492;SDS011;49638;47.526;10.028;2023-05-07T13:44:16;3.47;;;2.20;;
63492;SDS011;49638;47.526;10.028;2023-05-07T13:47:16;2.65;;;2.05;;
63492;SDS011;49638;47.526;10.028;2023-05-07T13:50:16;4.20;;;2.20;;
63492;SDS011;49638;47.526;10.028;2023-05-07T13:53:17;2.67;;;2.42;;
63492;SDS011;49638;47.526;10.028;2023-05-07T13:56:18;3.20;;;2.25;;
63492;SDS011;49638;47.526;10.028;2023-05-07T13:59:18;2.83;;;2.00;;
63492;SDS011;49638;47.526;10.028;2023-05-07T14:02:18;3.45;;;2.10;;
63492;SDS011;49638;47.526;10.028;2023-05-07T14:05:19;4.45;;;2.63;;
63492;SDS011;49638;47.526;10.028;2023-05-07T14:08:19;3.17;;;2.15;;
63492;SDS011;49638;47.526;10.028;2023-05-07T14:11:20;3.30;;;2.20;;
63492;SDS011;49638;47.526;10.028;2023-05-07T14:14:21;3.58;;;2.00;;
63492;SDS011;49638;47.526;10.028;2023-05-07T14:17:21;2.30;;;2.10;;
63492;SDS011;49638;47.526;10.028;2023-05-07T14:20:23;2.88;;;2.13;;
63492;SDS011;49638;47.526;10.028;2023-05-07T14:23:23;3.08;;;2.33;;
63492;SDS011;49638;47.526;10.028;2023-05-07T14:26:26;2.50;;;2.03;;
63492;SDS011;49638;47.526;10.028;2023-05-07T14:29:27;3.15;;;1.60;;
63492;SDS011;49638;47.526;10.028;2023-05-07T14:32:27;2.42;;;1.40;;
63492;SDS011;49638;47.526;10.028;2023-05-07T14:35:28;2.00;;;1.50;;
63492;SDS011;49638;47.526;10.028;2023-05-07T14:38:28;1.42;;;1.30;;
63492;SDS011;49638;47.526;10.028;2023-05-07T14:41:28;1.65;;;1.30;;
63492;SDS011;49638;47.526;10.028;2023-05-07T14:44:28;2.47;;;1.40;;
63492;SDS011;49638;47.526;10.028;2023-05-07T14:47:29;4.07;;;1.63;;
63492;SDS011;49638;47.526;10.028;2023-05-07T14:50:29;1.50;;;1.40;;
63492;SDS011;49638;47.526;10.028;2023-05-07T14:53:29;1.42;;;1.30;;
63492;SDS011;49638;47.526;10.028;2023-05-07T14:56:30;1.70;;;1.57;;
63492;SDS011;49638;47.526;10.028;2023-05-07T14:59:30;1.63;;;1.50;;
63492;SDS011;49638;47.526;10.028;2023-05-07T15:02:30;3.22;;;1.40;;
63492;SDS011;49638;47.526;10.028;2023-05-07T15:05:31;4.28;;;1.45;;
63492;SDS011;49638;47.526;10.028;2023-05-07T15:08:31;1.45;;;1.35;;
63492;SDS011;49638;47.526;10.028;2023-05-07T15:11:31;3.47;;;1.50;;
63492;SDS011;49638;47.526;10.028;2023-05-07T15:14:32;1.80;;;1.25;;
63492;SDS011;49638;47.526;10.028;2023-05-07T15:17:32;2.60;;;1.50;;
63492;SDS011;49638;47.526;10.028;2023-05-07T15:20:32;1.73;;;1.30;;
63492;SDS011;49638;47.526;10.028;2023-05-07T15:23:32;1.50;;;1.20;;
63492;SDS011;49638;47.526;10.028;2023-05-07T15:26:33;2.10;;;1.67;;
63492;SDS011;49638;47.526;10.028;2023-05-07T15:29:33;3.28;;;1.90;;
63492;SDS011;49638;47.526;10.028;2023-05-07T15:32:33;2.13;;;1.90;;
63492;SDS011;49638;47.526;10.028;2023-05-07T15:35:33;2.50;;;1.95;;
63492;SDS011;49638;47.526;10.028;2023-05-07T15:38:34;2.42;;;1.80;;
63492;SDS011;49638;47.526;10.028;2023-05-07T15:41:34;2.10;;;1.90;;
63492;SDS011;49638;47.526;10.028;2023-05-07T15:44:36;2.15;;;1.90;;
63492;SDS011;49638;47.526;10.028;2023-05-07T15:47:37;1.80;;;1.67;;
63492;SDS011;49638;47.526;10.028;2023-05-07T15:50:37;2.80;;;1.80;;
63492;SDS011;49638;47.526;10.028;2023-05-07T15:53:38;3.00;;;1.65;;
63492;SDS011;49638;47.526;10.028;2023-05-07T15:56:39;3.13;;;1.88;;
63492;SDS011;49638;47.526;10.028;2023-05-07T15:59:40;2.53;;;2.10;;
63492;SDS011;49638;47.526;10.028;2023-05-07T16:02:40;3.35;;;1.92;;
63492;SDS011;49638;47.526;10.028;2023-05-07T16:05:41;2.60;;;2.00;;
63492;SDS011;49638;47.526;10.028;2023-05-07T16:08:41;2.47;;;2.25;;
63492;SDS011;49638;47.526;10.028;2023-05-07T16:11:43;3.17;;;2.35;;
63492;SDS011;49638;47.526;10.028;2023-05-07T16:14:43;3.05;;;2.15;;
63492;SDS011;49638;47.526;10.028;2023-05-07T16:17:45;3.35;;;2.17;;
63492;SDS011;49638;47.526;10.028;2023-05-07T16:20:47;3.03;;;2.17;;
63492;SDS011;49638;47.526;10.028;2023-05-07T16:23:47;2.50;;;2.30;;
63492;SDS011;49638;47.526;10.028;2023-05-07T16:26:49;6.80;;;4.05;;
63492;SDS011;49638;47.526;10.028;2023-05-07T16:29:49;5.70;;;2.53;;
63492;SDS011;49638;47.526;10.028;2023-05-07T16:32:50;5.85;;;2.60;;
63492;SDS011;49638;47.526;10.028;2023-05-07T16:35:50;4.07;;;2.50;;
63492;SDS011;49638;47.526;10.028;2023-05-07T16:38:51;3.47;;;2.70;;
63492;SDS011;49638;47.526;10.028;2023-05-07T16:41:52;3.33;;;2.90;;
63492;SDS011;49638;47.526;10.028;2023-05-07T16:44:52;4.50;;;2.85;;
63492;SDS011;49638;47.526;10.028;2023-05-07T16:47:53;2.90;;;2.60;;
63492;SDS011;49638;47.526;10.028;2023-05-07T16:50:56;3.92;;;2.40;;
63492;SDS011;49638;47.526;10.028;2023-05-07T16:53:57;4.10;;;2.90;;
63492;SDS011;49638;47.526;10.028;2023-05-07T16:56:57;3.25;;;2.40;;
63492;SDS011;49638;47.526;10.028;2023-05-07T16:59:58;3.65;;;2.55;;
63492;SDS011;49638;47.526;10.028;2023-05-07T17:02:59;8.20;;;3.30;;
63492;SDS011;49638;47.526;10.028;2023-05-07T17:05:59;4.72;;;3.00;;
63492;SDS011;49638;47.526;10.028;2023-05-07T17:08:59;4.75;;;3.03;;
63492;SDS011;49638;47.526;10.028;2023-05-07T17:12:00;5.43;;;3.08;;
63492;SDS011;49638;47.526;10.028;2023-05-07T17:15:00;3.97;;;3.13;;
63492;SDS011;49638;47.526;10.028;2023-05-07T17:18:00;5.38;;;3.35;;
63492;SDS011;49638;47.526;10.028;2023-05-07T17:21:00;10.60;;;4.57;;
63492;SDS011;49638;47.526;10.028;2023-05-07T17:24:01;7.45;;;3.45;;
63492;SDS011;49638;47.526;10.028;2023-05-07T17:27:01;6.60;;;4.07;;
63492;SDS011;49638;47.526;10.028;2023-05-07T17:30:01;8.52;;;4.85;;
63492;SDS011;49638;47.526;10.028;2023-05-07T17:33:02;5.57;;;4.22;;
63492;SDS011;49638;47.526;10.028;2023-05-07T17:36:02;5.85;;;3.70;;
63492;SDS011;49638;47.526;10.028;2023-05-07T17:39:03;7.55;;;3.88;;
63492;SDS011;49638;47.526;10.028;2023-05-07T17:42:03;5.10;;;3.70;;
63492;SDS011;49638;47.526;10.028;2023-05-07T17:45:04;5.68;;;3.97;;
63492;SDS011;49638;47.526;10.028;2023-05-07T17:48:04;5.00;;;3.97;;
63492;SDS011;49638;47.526;10.028;2023-05-07T17:51:04;5.93;;;4.10;;
63492;SDS011;49638;47.526;10.028;2023-05-07T17:54:05;8.95;;;4.25;;
63492;SDS011;49638;47.526;10.028;2023-05-07T17:57:05;5.50;;;4.47;;
63492;SDS011;49638;47.526;10.028;2023-05-07T18:00:06;6.05;;;4.50;;
63492;SDS011;49638;47.526;10.028;2023-05-07T18:03:06;50.60;;;24.38;;
63492;SDS011;49638;47.526;10.028;2023-05-07T18:06:07;23.35;;;14.55;;
63492;SDS011;49638;47.526;10.028;2023-05-07T18:09:07;10.82;;;7.45;;